CST,Max TemperatureF,Mean TemperatureF,Min TemperatureF,Max Dew PointF,MeanDew PointF,Min DewpointF,Max Humidity, Mean Humidity, Min Humidity, Max Sea Level PressureIn, Mean Sea Level PressureIn, Min Sea Level PressureIn, Max VisibilityMiles, Mean VisibilityMiles, Min VisibilityMiles, Max Wind SpeedMPH, Mean Wind SpeedMPH, Max Gust SpeedMPH,PrecipitationIn, CloudCover, Events, WindDirDegrees
2012-1-1,24,19,14,21,15,9,93,82,68,30.32,30.06,29.85,10,4,1,31,18,44,0.00,8,Snow,299
2012-1-2,15,6,-2,10,1,-8,92,76,49,30.54,30.45,30.35,10,8,1,23,11,31,0.00,4,Snow,315
2012-1-3,26,16,6,18,8,0,86,70,57,30.25,29.87,29.65,10,9,4,28,16,36,0.00,0,,180
2012-1-4,35,20,6,27,18,5,100,88,70,30.00,29.94,29.84,10,9,4,13,5,,0.00,0,,199
2012-1-5,46,32,17,36,27,18,100,82,57,29.85,29.61,29.46,10,9,0,17,10,24,0.00,0,Fog-Snow,202
2012-1-6,39,31,23,30,26,18,93,83,60,29.87,29.65,29.53,10,10,4,20,12,29,0.00,3,Snow,260
2012-1-7,35,28,21,28,22,18,93,85,65,30.09,29.99,29.92,10,10,10,12,6,,0.00,6,,231
2012-1-8,37,27,17,27,22,18,100,85,65,30.14,30.09,29.95,10,10,10,20,6,20,0.00,4,,186
2012-1-9,42,30,19,28,24,18,93,71,57,29.89,29.80,29.73,10,10,10,21,13,30,0.00,1,,239
2012-1-10,42,33,24,30,28,23,93,83,61,29.83,29.68,29.60,10,10,10,14,9,18,0.00,1,,193
2012-1-11,32,18,3,30,11,-2,100,80,67,29.97,29.84,29.63,10,9,2,25,16,33,0.03,8,Rain-Snow,316
2012-1-12,6,0,-5,1,-3,-9,85,80,72,30.00,29.97,29.94,10,8,2,21,15,26,0.00,7,Snow,327
2012-1-13,10,-2,-14,0,-8,-18,85,75,57,29.97,29.93,29.87,10,10,3,8,2,,0.00,2,Snow,195
2012-1-14,21,14,6,19,11,1,93,86,73,29.92,29.87,29.85,10,8,2,12,8,,0.00,8,Snow,180
2012-1-15,35,27,19,23,20,16,93,80,56,29.92,29.72,29.58,10,10,7,20,8,26,0.00,2,,160
2012-1-16,19,11,3,16,3,-2,86,80,67,30.07,29.91,29.73,10,9,4,20,14,24,0.00,5,Snow,321
2012-1-17,1,-5,-13,-8,-12,-18,92,73,56,30.25,30.19,30.14,10,10,7,13,9,,0.00,0,,313
2012-1-18,0,-10,-20,-6,-14,-26,84,76,70,30.10,29.87,29.71,10,8,1,21,7,26,0.00,5,Snow,19
2012-1-19,-2,-14,-25,-13,-23,-31,83,69,50,30.04,30.00,29.97,10,10,10,17,8,22,0.00,0,,227
2012-1-20,8,-3,-14,-6,-13,-20,85,68,40,30.14,30.04,29.97,10,10,10,10,6,,0.00,0,,225
2012-1-21,15,0,-14,9,-3,-18,84,74,65,30.12,29.91,29.64,10,10,10,18,8,25,0.00,4,Snow,152
2012-1-22,24,20,17,21,19,12,93,89,79,29.59,29.55,29.50,10,3,0,16,7,21,0.21,8,Snow,143
2012-1-23,21,16,10,19,13,7,100,90,85,29.85,29.68,29.56,10,5,2,15,9,21,0.00,8,Snow,310
2012-1-24,24,16,8,18,10,5,93,83,69,30.12,30.05,29.91,10,10,7,15,6,16,0.00,4,Snow,188
2012-1-25,30,24,17,27,24,16,100,92,80,30.09,29.88,29.62,10,4,1,25,15,37,0.00,6,Snow,177
2012-1-26,35,26,17,25,21,10,93,77,48,29.71,29.64,29.55,10,10,10,20,13,26,0.00,1,,244
2012-1-27,32,19,6,25,16,3,100,81,59,29.84,29.71,29.59,10,8,0,17,8,21,0.07,4,Snow,235
2012-1-28,21,16,12,14,12,10,92,78,63,29.91,29.86,29.81,10,10,7,15,11,21,0.00,7,Snow,266
2012-1-29,12,-3,-18,7,-7,-24,92,76,62,30.11,30.03,29.87,10,10,5,12,2,,0.00,1,,153
2012-1-30,33,24,15,27,17,10,86,77,60,29.72,29.59,29.53,10,10,5,14,8,18,0.00,3,Snow,135
2012-1-31,30,27,24,28,24,21,100,91,80,29.86,29.65,29.48,10,5,0,15,6,21,0.00,7,Fog,265